sensor_id;sensor_type;location;lat;lon;timestamp;pressure;altitude;pressure_sealevel;temperature;humidity
20003;BME280;10162;41.600;23.806;2022-08-24T00:04:09;94836.22;;;16.92;100.00
20003;BME280;10162;41.600;23.806;2022-08-24T00:06:34;94863.19;;;17.11;100.00
20003;BME280;10162;41.600;23.806;2022-08-24T00:09:00;94852.53;;;16.72;100.00
20003;BME280;10162;41.600;23.806;2022-08-24T00:15:13;94855.84;;;16.96;100.00
20003;BME280;10162;41.600;23.806;2022-08-24T00:17:40;94842.47;;;16.41;100.00
20003;BME280;10162;41.600;23.806;2022-08-24T00:23:53;94854.63;;;16.87;100.00
20003;BME280;10162;41.600;23.806;2022-08-24T00:26:18;94840.31;;;16.66;100.00
20003;BME280;10162;41.600;23.806;2022-08-24T00:28:44;94829.25;;;16.86;100.00
20003;BME280;10162;41.600;23.806;2022-08-24T00:34:57;94827.94;;;16.55;100.00
20003;BME280;10162;41.600;23.806;2022-08-24T00:37:23;94824.72;;;16.53;100.00
20003;BME280;10162;41.600;23.806;2022-08-24T00:43:51;94832.69;;;16.86;100.00
20003;BME280;10162;41.600;23.806;2022-08-24T00:46:26;94848.63;;;17.08;100.00
20003;BME280;10162;41.600;23.806;2022-08-24T00:49:31;94842.16;;;16.82;100.00
20003;BME280;10162;41.600;23.806;2022-08-24T00:54:31;94844.69;;;17.11;100.00
20003;BME280;10162;41.600;23.806;2022-08-24T00:57:00;94843.16;;;17.15;100.00
20003;BME280;10162;41.600;23.806;2022-08-24T01:03:15;94831.34;;;16.67;100.00
20003;BME280;10162;41.600;23.806;2022-08-24T01:05:42;94837.84;;;16.48;100.00
20003;BME280;10162;41.600;23.806;2022-08-24T01:08:10;94841.94;;;16.56;100.00
20003;BME280;10162;41.600;23.806;2022-08-24T01:14:24;94832.09;;;16.34;100.00
20003;BME280;10162;41.600;23.806;2022-08-24T01:16:50;94840.41;;;16.43;100.00
20003;BME280;10162;41.600;23.806;2022-08-24T01:23:36;94852.25;;;16.85;100.00
20003;BME280;10162;41.600;23.806;2022-08-24T01:26:04;94848.31;;;16.43;100.00
20003;BME280;10162;41.600;23.806;2022-08-24T01:28:31;94854.97;;;16.17;100.00
20003;BME280;10162;41.600;23.806;2022-08-24T01:34:45;94846.41;;;16.55;100.00
20003;BME280;10162;41.600;23.806;2022-08-24T01:37:11;94827.09;;;16.21;100.00
20003;BME280;10162;41.600;23.806;2022-08-24T01:43:26;94838.81;;;16.13;100.00
20003;BME280;10162;41.600;23.806;2022-08-24T01:45:52;94852.94;;;16.36;100.00
20003;BME280;10162;41.600;23.806;2022-08-24T01:48:20;94848.69;;;16.63;100.00
20003;BME280;10162;41.600;23.806;2022-08-24T01:54:33;94858.59;;;16.28;100.00
20003;BME280;10162;41.600;23.806;2022-08-24T01:56:59;94834.34;;;15.86;100.00
20003;BME280;10162;41.600;23.806;2022-08-24T02:03:13;94854.53;;;16.08;100.00
20003;BME280;10162;41.600;23.806;2022-08-24T02:05:41;94845.97;;;16.01;100.00
20003;BME280;10162;41.600;23.806;2022-08-24T02:08:11;94877.16;;;16.33;100.00
20003;BME280;10162;41.600;23.806;2022-08-24T02:14:24;94862.94;;;16.05;100.00
20003;BME280;10162;41.600;23.806;2022-08-24T02:16:50;94863.66;;;16.18;100.00
20003;BME280;10162;41.600;23.806;2022-08-24T02:23:12;94868.38;;;15.87;100.00
20003;BME280;10162;41.600;23.806;2022-08-24T02:25:38;94870.13;;;16.10;100.00
20003;BME280;10162;41.600;23.806;2022-08-24T02:28:04;94874.97;;;16.01;100.00
20003;BME280;10162;41.600;23.806;2022-08-24T02:34:17;94872.75;;;15.82;100.00
20003;BME280;10162;41.600;23.806;2022-08-24T02:36:43;94879.16;;;15.86;100.00
20003;BME280;10162;41.600;23.806;2022-08-24T02:39:09;94868.03;;;16.12;100.00
20003;BME280;10162;41.600;23.806;2022-08-24T02:41:36;94877.72;;;15.95;100.00
20003;BME280;10162;41.600;23.806;2022-08-24T02:44:03;94855.59;;;15.56;100.00
20003;BME280;10162;41.600;23.806;2022-08-24T02:46:29;94881.47;;;15.82;100.00
20003;BME280;10162;41.600;23.806;2022-08-24T02:48:57;94856.38;;;15.68;100.00
20003;BME280;10162;41.600;23.806;2022-08-24T02:55:15;94887.97;;;15.80;100.00
20003;BME280;10162;41.600;23.806;2022-08-24T02:57:43;94868.31;;;15.47;100.00
20003;BME280;10162;41.600;23.806;2022-08-24T03:03:57;94887.75;;;16.21;100.00
20003;BME280;10162;41.600;23.806;2022-08-24T03:06:23;94859.53;;;16.22;100.00
20003;BME280;10162;41.600;23.806;2022-08-24T03:08:49;94883.34;;;15.98;100.00
20003;BME280;10162;41.600;23.806;2022-08-24T03:15:05;94896.63;;;16.03;100.00
20003;BME280;10162;41.600;23.806;2022-08-24T03:17:31;94881.81;;;15.74;100.00
20003;BME280;10162;41.600;23.806;2022-08-24T03:23:46;94878.50;;;15.67;100.00
20003;BME280;10162;41.600;23.806;2022-08-24T03:26:12;94903.75;;;16.03;100.00
20003;BME280;10162;41.600;23.806;2022-08-24T03:28:39;94881.81;;;15.74;100.00
20003;BME280;10162;41.600;23.806;2022-08-24T03:34:52;94881.59;;;15.76;100.00
20003;BME280;10162;41.600;23.806;2022-08-24T03:37:19;94875.56;;;15.92;100.00
20003;BME280;10162;41.600;23.806;2022-08-24T03:43:32;94890.44;;;15.58;100.00
20003;BME280;10162;41.600;23.806;2022-08-24T03:46:12;94888.72;;;15.52;100.00
20003;BME280;10162;41.600;23.806;2022-08-24T03:48:40;94878.03;;;15.70;100.00
20003;BME280;10162;41.600;23.806;2022-08-24T03:54:55;94881.69;;;15.46;100.00
20003;BME280;10162;41.600;23.806;2022-08-24T03:57:21;94887.97;;;15.80;100.00
20003;BME280;10162;41.600;23.806;2022-08-24T04:03:37;94898.06;;;15.94;100.00
20003;BME280;10162;41.600;23.806;2022-08-24T04:06:04;94889.59;;;15.81;100.00
20003;BME280;10162;41.600;23.806;2022-08-24T04:08:30;94871.72;;;15.83;100.00
20003;BME280;10162;41.600;23.806;2022-08-24T04:14:44;94874.50;;;16.04;100.00
20003;BME280;10162;41.600;23.806;2022-08-24T04:17:14;94902.84;;;15.97;100.00
20003;BME280;10162;41.600;23.806;2022-08-24T04:23:30;94890.34;;;16.33;100.00
20003;BME280;10162;41.600;23.806;2022-08-24T04:26:03;94886.50;;;16.40;100.00
20003;BME280;10162;41.600;23.806;2022-08-24T04:28:30;94874.84;;;16.65;100.00
20003;BME280;10162;41.600;23.806;2022-08-24T04:34:44;94879.91;;;17.00;100.00
20003;BME280;10162;41.600;23.806;2022-08-24T04:37:11;94893.59;;;17.13;100.00
20003;BME280;10162;41.600;23.806;2022-08-24T04:43:25;94887.66;;;17.40;100.00
20003;BME280;10162;41.600;23.806;2022-08-24T04:45:51;94896.91;;;17.75;100.00
20003;BME280;10162;41.600;23.806;2022-08-24T04:48:18;94907.22;;;17.77;100.00
20003;BME280;10162;41.600;23.806;2022-08-24T04:54:31;94876.22;;;17.72;100.00
20003;BME280;10162;41.600;23.806;2022-08-24T04:57:13;94884.16;;;17.72;100.00
20003;BME280;10162;41.600;23.806;2022-08-24T05:03:03;94904.34;;;17.79;100.00
20003;BME280;10162;41.600;23.806;2022-08-24T05:05:29;94900.72;;;17.85;100.00
20003;BME280;10162;41.600;23.806;2022-08-24T05:07:55;94905.53;;;17.88;100.00
20003;BME280;10162;41.600;23.806;2022-08-24T05:13:25;94908.19;;;18.09;100.00
20003;BME280;10162;41.600;23.806;2022-08-24T05:15:51;94902.88;;;18.09;100.00
20003;BME280;10162;41.600;23.806;2022-08-24T05:18:17;94885.69;;;18.55;100.00
20003;BME280;10162;41.600;23.806;2022-08-24T05:24:31;94915.81;;;19.77;100.00
20003;BME280;10162;41.600;23.806;2022-08-24T05:26:57;94915.28;;;19.75;100.00
20003;BME280;10162;41.600;23.806;2022-08-24T05:33:25;94882.09;;;19.72;100.00
20003;BME280;10162;41.600;23.806;2022-08-24T05:35:51;94891.06;;;20.18;100.00
20003;BME280;10162;41.600;23.806;2022-08-24T05:38:17;94881.38;;;20.44;100.00
20003;BME280;10162;41.600;23.806;2022-08-24T05:44:30;94892.59;;;20.77;100.00
20003;BME280;10162;41.600;23.806;2022-08-24T05:46:57;94893.66;;;20.91;100.00
20003;BME280;10162;41.600;23.806;2022-08-24T05:52:34;94891.84;;;21.37;98.22
20003;BME280;10162;41.600;23.806;2022-08-24T05:55:01;94889.19;;;21.12;95.92
20003;BME280;10162;41.600;23.806;2022-08-24T05:57:31;94880.41;;;21.52;93.16
20003;BME280;10162;41.600;23.806;2022-08-24T06:00:54;94900.31;;;21.69;93.17
20003;BME280;10162;41.600;23.806;2022-08-24T06:03:20;94884.31;;;21.84;90.97
20003;BME280;10162;41.600;23.806;2022-08-24T06:05:49;94894.44;;;21.98;93.29
20003;BME280;10162;41.600;23.806;2022-08-24T06:08:17;94906.84;;;22.17;89.55
20003;BME280;10162;41.600;23.806;2022-08-24T06:14:15;94902.09;;;22.04;90.34
20003;BME280;10162;41.600;23.806;2022-08-24T06:16:53;94904.47;;;22.11;90.65
20003;BME280;10162;41.600;23.806;2022-08-24T06:19:20;94900.53;;;22.03;90.09
20003;BME280;10162;41.600;23.806;2022-08-24T06:21:48;94903.22;;;21.98;91.79
20003;BME280;10162;41.600;23.806;2022-08-24T06:24:15;94904.56;;;22.50;87.84
20003;BME280;10162;41.600;23.806;2022-08-24T06:26:43;94903.97;;;22.63;86.04
20003;BME280;10162;41.600;23.806;2022-08-24T06:29:33;94885.78;;;22.80;85.54
20003;BME280;10162;41.600;23.806;2022-08-24T06:32:12;94889.91;;;23.01;84.87
20003;BME280;10162;41.600;23.806;2022-08-24T06:34:39;94902.41;;;23.06;85.36
20003;BME280;10162;41.600;23.806;2022-08-24T06:37:05;94879.13;;;23.17;84.00
20003;BME280;10162;41.600;23.806;2022-08-24T06:42:50;94867.56;;;22.92;83.43
20003;BME280;10162;41.600;23.806;2022-08-24T06:45:22;94871.88;;;23.22;82.62
20003;BME280;10162;41.600;23.806;2022-08-24T06:47:49;94864.88;;;23.31;80.48
20003;BME280;10162;41.600;23.806;2022-08-24T06:53:34;94867.50;;;23.65;81.60
20003;BME280;10162;41.600;23.806;2022-08-24T06:56:01;94877.78;;;23.77;81.17
20003;BME280;10162;41.600;23.806;2022-08-24T06:58:31;94871.63;;;23.53;81.28
20003;BME280;10162;41.600;23.806;2022-08-24T07:04:45;94870.47;;;24.11;80.39
20003;BME280;10162;41.600;23.806;2022-08-24T07:07:29;94861.88;;;24.38;80.47
20003;BME280;10162;41.600;23.806;2022-08-24T07:13:44;94859.09;;;24.48;77.91
20003;BME280;10162;41.600;23.806;2022-08-24T07:16:13;94854.38;;;24.40;79.40
20003;BME280;10162;41.600;23.806;2022-08-24T07:18:41;94869.34;;;24.60;78.96
20003;BME280;10162;41.600;23.806;2022-08-24T07:24:54;94875.59;;;24.93;76.45
20003;BME280;10162;41.600;23.806;2022-08-24T07:27:19;94879.63;;;24.90;79.29
20003;BME280;10162;41.600;23.806;2022-08-24T07:33:14;94888.28;;;25.01;76.30
20003;BME280;10162;41.600;23.806;2022-08-24T07:35:43;94866.84;;;25.06;78.27
20003;BME280;10162;41.600;23.806;2022-08-24T07:38:10;94876.13;;;25.41;74.54
20003;BME280;10162;41.600;23.806;2022-08-24T07:44:25;94873.03;;;25.20;77.29
20003;BME280;10162;41.600;23.806;2022-08-24T07:46:51;94872.84;;;24.98;73.12
20003;BME280;10162;41.600;23.806;2022-08-24T07:49:17;94875.19;;;24.81;79.85
20003;BME280;10162;41.600;23.806;2022-08-24T07:51:43;94868.78;;;24.82;79.82
20003;BME280;10162;41.600;23.806;2022-08-24T07:54:09;94879.63;;;25.09;81.81
20003;BME280;10162;41.600;23.806;2022-08-24T07:56:41;94869.63;;;25.93;75.38
20003;BME280;10162;41.600;23.806;2022-08-24T07:59:08;94891.78;;;26.53;72.58
20003;BME280;10162;41.600;23.806;2022-08-24T08:01:34;94890.25;;;26.88;71.23
20003;BME280;10162;41.600;23.806;2022-08-24T08:04:00;94889.78;;;26.31;73.30
20003;BME280;10162;41.600;23.806;2022-08-24T08:06:26;94885.13;;;26.23;74.35
20003;BME280;10162;41.600;23.806;2022-08-24T08:08:56;94892.34;;;25.96;72.60
20003;BME280;10162;41.600;23.806;2022-08-24T08:11:52;94897.34;;;25.56;76.03
20003;BME280;10162;41.600;23.806;2022-08-24T08:14:18;94893.25;;;25.26;77.12
20003;BME280;10162;41.600;23.806;2022-08-24T08:16:44;94892.00;;;25.05;78.21
20003;BME280;10162;41.600;23.806;2022-08-24T08:19:10;94897.72;;;25.31;78.60
20003;BME280;10162;41.600;23.806;2022-08-24T08:21:47;94889.66;;;25.49;78.57
20003;BME280;10162;41.600;23.806;2022-08-24T08:24:37;94908.06;;;25.70;75.73
20003;BME280;10162;41.600;23.806;2022-08-24T08:27:04;94912.97;;;25.95;73.10
20003;BME280;10162;41.600;23.806;2022-08-24T08:32:43;94888.00;;;26.27;72.55
20003;BME280;10162;41.600;23.806;2022-08-24T08:35:09;94891.28;;;26.24;71.45
20003;BME280;10162;41.600;23.806;2022-08-24T08:37:35;94919.44;;;27.12;65.83
20003;BME280;10162;41.600;23.806;2022-08-24T08:54:42;94902.56;;;26.62;63.50
20003;BME280;10162;41.600;23.806;2022-08-24T09:18:04;94879.16;;;26.54;64.99
20003;BME280;10162;41.600;23.806;2022-08-24T09:23:35;94866.47;;;26.32;64.18
20003;BME280;10162;41.600;23.806;2022-08-24T09:26:29;94856.94;;;26.26;64.18
20003;BME280;10162;41.600;23.806;2022-08-24T09:35:18;94889.44;;;26.60;68.54
20003;BME280;10162;41.600;23.806;2022-08-24T09:37:59;94894.50;;;26.76;68.48
20003;BME280;10162;41.600;23.806;2022-08-24T09:44:37;94899.41;;;27.09;64.04
20003;BME280;10162;41.600;23.806;2022-08-24T09:54:02;94870.38;;;30.07;52.43
20003;BME280;10162;41.600;23.806;2022-08-24T10:07:27;94861.59;;;29.72;52.61
20003;BME280;10162;41.600;23.806;2022-08-24T10:17:01;94830.91;;;27.57;55.46
20003;BME280;10162;41.600;23.806;2022-08-24T10:35:16;94842.44;;;28.45;52.92
20003;BME280;10162;41.600;23.806;2022-08-24T10:46:59;94843.19;;;27.88;55.64
20003;BME280;10162;41.600;23.806;2022-08-24T10:53:22;94830.94;;;29.39;51.70
20003;BME280;10162;41.600;23.806;2022-08-24T10:56:12;94832.00;;;30.31;49.11
20003;BME280;10162;41.600;23.806;2022-08-24T11:05:12;94829.53;;;29.79;49.88
20003;BME280;10162;41.600;23.806;2022-08-24T11:07:59;94823.34;;;29.32;49.91
20003;BME280;10162;41.600;23.806;2022-08-24T11:16:42;94810.47;;;29.55;50.29
20003;BME280;10162;41.600;23.806;2022-08-24T11:22:58;94815.84;;;30.31;48.90
20003;BME280;10162;41.600;23.806;2022-08-24T11:25:27;94795.88;;;29.56;46.51
20003;BME280;10162;41.600;23.806;2022-08-24T11:28:17;94772.91;;;29.88;45.58
20003;BME280;10162;41.600;23.806;2022-08-24T11:34:38;94771.06;;;30.09;47.42
20003;BME280;10162;41.600;23.806;2022-08-24T11:37:13;94760.84;;;29.56;48.52
20003;BME280;10162;41.600;23.806;2022-08-24T11:55:12;94760.44;;;30.96;44.75
20003;BME280;10162;41.600;23.806;2022-08-24T11:57:54;94757.75;;;30.96;44.27
20003;BME280;10162;41.600;23.806;2022-08-24T12:12:57;94745.97;;;28.86;49.11
20003;BME280;10162;41.600;23.806;2022-08-24T12:15:59;94739.41;;;29.13;48.29
20003;BME280;10162;41.600;23.806;2022-08-24T12:18:45;94712.22;;;29.82;46.76
20003;BME280;10162;41.600;23.806;2022-08-24T12:25:02;94723.50;;;30.34;46.23
20003;BME280;10162;41.600;23.806;2022-08-24T12:27:49;94717.50;;;30.49;46.26
20003;BME280;10162;41.600;23.806;2022-08-24T12:34:15;94724.41;;;30.79;46.11
20003;BME280;10162;41.600;23.806;2022-08-24T12:36:55;94719.75;;;30.47;47.09
20003;BME280;10162;41.600;23.806;2022-08-24T12:45:58;94724.06;;;29.60;49.56
20003;BME280;10162;41.600;23.806;2022-08-24T12:57:44;94733.91;;;28.84;51.53
20003;BME280;10162;41.600;23.806;2022-08-24T13:04:17;94730.59;;;28.44;55.18
20003;BME280;10162;41.600;23.806;2022-08-24T13:13:21;94710.38;;;29.36;54.88
20003;BME280;10162;41.600;23.806;2022-08-24T13:54:13;94701.22;;;27.65;60.61
20003;BME280;10162;41.600;23.806;2022-08-24T13:57:23;94696.53;;;27.39;61.25
20003;BME280;10162;41.600;23.806;2022-08-24T14:03:55;94687.34;;;26.48;65.46
20003;BME280;10162;41.600;23.806;2022-08-24T14:15:32;94750.94;;;25.24;82.90
20003;BME280;10162;41.600;23.806;2022-08-24T14:18:24;94750.31;;;25.14;83.99
20003;BME280;10162;41.600;23.806;2022-08-24T14:35:42;94772.03;;;24.61;75.54
20003;BME280;10162;41.600;23.806;2022-08-24T14:38:20;94769.84;;;24.63;77.13
20003;BME280;10162;41.600;23.806;2022-08-24T14:47:30;94783.31;;;24.39;78.79
20003;BME280;10162;41.600;23.806;2022-08-24T14:53:58;94747.53;;;23.98;78.94
20003;BME280;10162;41.600;23.806;2022-08-24T15:04:51;94743.56;;;23.95;81.52
20003;BME280;10162;41.600;23.806;2022-08-24T15:07:22;94748.59;;;24.20;82.50
20003;BME280;10162;41.600;23.806;2022-08-24T15:13:04;94744.63;;;24.37;80.37
20003;BME280;10162;41.600;23.806;2022-08-24T15:15:42;94740.06;;;24.37;80.84
20003;BME280;10162;41.600;23.806;2022-08-24T15:34:03;94730.50;;;24.12;85.81
20003;BME280;10162;41.600;23.806;2022-08-24T15:36:31;94731.19;;;24.23;84.83
20003;BME280;10162;41.600;23.806;2022-08-24T15:39:03;94723.56;;;24.11;85.29
20003;BME280;10162;41.600;23.806;2022-08-24T15:41:37;94728.81;;;23.79;88.75
20003;BME280;10162;41.600;23.806;2022-08-24T15:44:08;94744.91;;;23.50;91.94
20003;BME280;10162;41.600;23.806;2022-08-24T15:46:42;94751.84;;;23.51;92.51
20003;BME280;10162;41.600;23.806;2022-08-24T15:49:26;94752.00;;;23.60;92.57
20003;BME280;10162;41.600;23.806;2022-08-24T16:05:48;94741.63;;;23.05;100.00
20003;BME280;10162;41.600;23.806;2022-08-24T16:08:14;94720.81;;;22.79;100.00
20003;BME280;10162;41.600;23.806;2022-08-24T16:10:44;94736.72;;;22.89;100.00
20003;BME280;10162;41.600;23.806;2022-08-24T16:16:13;94717.31;;;22.49;100.00
20003;BME280;10162;41.600;23.806;2022-08-24T16:23:53;94747.88;;;22.57;100.00
20003;BME280;10162;41.600;23.806;2022-08-24T16:28:49;94755.13;;;22.51;100.00
20003;BME280;10162;41.600;23.806;2022-08-24T16:31:48;94770.53;;;22.93;100.00
20003;BME280;10162;41.600;23.806;2022-08-24T16:34:26;94783.19;;;23.12;100.00
20003;BME280;10162;41.600;23.806;2022-08-24T16:36:53;94771.13;;;22.85;100.00
20003;BME280;10162;41.600;23.806;2022-08-24T16:39:19;94769.28;;;22.47;100.00
20003;BME280;10162;41.600;23.806;2022-08-24T16:41:45;94768.22;;;22.48;100.00
20003;BME280;10162;41.600;23.806;2022-08-24T16:44:12;94782.16;;;22.68;100.00
20003;BME280;10162;41.600;23.806;2022-08-24T16:46:38;94792.31;;;22.72;100.00
20003;BME280;10162;41.600;23.806;2022-08-24T16:49:04;94808.75;;;22.84;100.00
20003;BME280;10162;41.600;23.806;2022-08-24T16:54:48;94794.38;;;22.80;100.00
20003;BME280;10162;41.600;23.806;2022-08-24T16:57:21;94806.84;;;22.84;100.00
20003;BME280;10162;41.600;23.806;2022-08-24T17:03:11;94803.06;;;22.90;100.00
20003;BME280;10162;41.600;23.806;2022-08-24T17:05:38;94811.03;;;23.24;95.54
20003;BME280;10162;41.600;23.806;2022-08-24T17:08:04;94811.41;;;23.41;83.72
20003;BME280;10162;41.600;23.806;2022-08-24T17:13:48;94823.16;;;22.83;97.15
20003;BME280;10162;41.600;23.806;2022-08-24T17:16:13;94822.66;;;22.76;94.41
20003;BME280;10162;41.600;23.806;2022-08-24T17:18:41;94822.78;;;22.50;97.78
20003;BME280;10162;41.600;23.806;2022-08-24T17:21:20;94821.22;;;22.49;94.82
20003;BME280;10162;41.600;23.806;2022-08-24T17:23:46;94811.78;;;22.62;92.04
20003;BME280;10162;41.600;23.806;2022-08-24T17:26:13;94805.16;;;22.10;100.00
20003;BME280;10162;41.600;23.806;2022-08-24T17:28:41;94812.47;;;22.39;94.11
20003;BME280;10162;41.600;23.806;2022-08-24T17:31:13;94782.56;;;22.52;91.41
20003;BME280;10162;41.600;23.806;2022-08-24T17:33:40;94793.69;;;22.59;93.19
20003;BME280;10162;41.600;23.806;2022-08-24T17:36:07;94773.22;;;22.15;98.03
20003;BME280;10162;41.600;23.806;2022-08-24T17:38:38;94772.88;;;22.22;93.56
20003;BME280;10162;41.600;23.806;2022-08-24T17:41:07;94785.19;;;22.13;100.00
20003;BME280;10162;41.600;23.806;2022-08-24T17:43:33;94764.50;;;22.44;91.09
20003;BME280;10162;41.600;23.806;2022-08-24T17:46:00;94797.75;;;22.51;90.40
20003;BME280;10162;41.600;23.806;2022-08-24T17:48:26;94807.59;;;22.51;93.39
20003;BME280;10162;41.600;23.806;2022-08-24T17:50:53;94802.53;;;22.54;89.68
20003;BME280;10162;41.600;23.806;2022-08-24T17:53:19;94794.53;;;22.54;87.86
20003;BME280;10162;41.600;23.806;2022-08-24T17:55:46;94821.41;;;22.58;88.89
20003;BME280;10162;41.600;23.806;2022-08-24T17:58:13;94843.47;;;22.68;89.50
20003;BME280;10162;41.600;23.806;2022-08-24T18:00:43;94847.00;;;22.59;90.92
20003;BME280;10162;41.600;23.806;2022-08-24T18:03:09;94825.53;;;22.40;91.96
20003;BME280;10162;41.600;23.806;2022-08-24T18:05:35;94861.34;;;22.63;91.30
20003;BME280;10162;41.600;23.806;2022-08-24T18:08:01;94863.31;;;22.47;94.36
20003;BME280;10162;41.600;23.806;2022-08-24T18:10:36;94839.44;;;22.32;94.63
20003;BME280;10162;41.600;23.806;2022-08-24T18:13:02;94872.13;;;22.43;95.48
20003;BME280;10162;41.600;23.806;2022-08-24T18:15:31;94885.50;;;22.33;96.67
20003;BME280;10162;41.600;23.806;2022-08-24T18:18:00;94895.84;;;22.39;96.40
20003;BME280;10162;41.600;23.806;2022-08-24T18:20:43;94895.81;;;22.44;96.21
20003;BME280;10162;41.600;23.806;2022-08-24T18:23:09;94880.13;;;22.43;96.58
20003;BME280;10162;41.600;23.806;2022-08-24T18:25:40;94885.75;;;22.36;94.74
20003;BME280;10162;41.600;23.806;2022-08-24T18:28:06;94886.00;;;22.35;93.29
20003;BME280;10162;41.600;23.806;2022-08-24T18:30:36;94882.25;;;22.41;91.89
20003;BME280;10162;41.600;23.806;2022-08-24T18:33:05;94879.31;;;22.42;90.54
20003;BME280;10162;41.600;23.806;2022-08-24T18:35:30;94894.47;;;22.47;91.01
20003;BME280;10162;41.600;23.806;2022-08-24T18:37:57;94873.72;;;22.39;89.59
20003;BME280;10162;41.600;23.806;2022-08-24T18:40:27;94879.97;;;22.68;88.32
20003;BME280;10162;41.600;23.806;2022-08-24T18:42:55;94880.22;;;22.77;87.82
20003;BME280;10162;41.600;23.806;2022-08-24T18:45:21;94854.97;;;22.59;88.66
20003;BME280;10162;41.600;23.806;2022-08-24T18:47:47;94863.00;;;22.54;89.61
20003;BME280;10162;41.600;23.806;2022-08-24T18:50:15;94856.94;;;22.43;90.22
20003;BME280;10162;41.600;23.806;2022-08-24T18:52:41;94852.09;;;22.55;86.31
20003;BME280;10162;41.600;23.806;2022-08-24T18:55:07;94857.84;;;22.67;86.04
20003;BME280;10162;41.600;23.806;2022-08-24T18:57:33;94873.81;;;22.78;84.54
20003;BME280;10162;41.600;23.806;2022-08-24T19:00:11;94868.88;;;22.51;86.86
20003;BME280;10162;41.600;23.806;2022-08-24T19:02:37;94870.66;;;22.65;87.22
20003;BME280;10162;41.600;23.806;2022-08-24T19:05:19;94880.16;;;22.38;88.50
20003;BME280;10162;41.600;23.806;2022-08-24T19:07:48;94885.41;;;22.53;86.55
20003;BME280;10162;41.600;23.806;2022-08-24T19:10:21;94880.31;;;22.56;86.61
20003;BME280;10162;41.600;23.806;2022-08-24T19:12:50;94889.31;;;22.11;91.58
20003;BME280;10162;41.600;23.806;2022-08-24T19:15:17;94904.38;;;22.36;89.90
20003;BME280;10162;41.600;23.806;2022-08-24T19:17:43;94899.56;;;22.43;88.39
20003;BME280;10162;41.600;23.806;2022-08-24T19:23:57;94910.72;;;22.45;88.41
20003;BME280;10162;41.600;23.806;2022-08-24T19:26:23;94909.53;;;22.12;89.36
20003;BME280;10162;41.600;23.806;2022-08-24T19:28:49;94931.97;;;21.96;94.53
20003;BME280;10162;41.600;23.806;2022-08-24T19:31:39;94924.72;;;22.12;97.26
20003;BME280;10162;41.600;23.806;2022-08-24T19:34:05;94912.84;;;21.69;94.90
20003;BME280;10162;41.600;23.806;2022-08-24T19:36:31;94908.00;;;21.86;94.90
20003;BME280;10162;41.600;23.806;2022-08-24T19:38:58;94921.84;;;22.03;94.58
20003;BME280;10162;41.600;23.806;2022-08-24T19:45:12;94971.84;;;22.06;93.25
20003;BME280;10162;41.600;23.806;2022-08-24T19:47:57;94986.50;;;21.89;99.24
20003;BME280;10162;41.600;23.806;2022-08-24T19:54:11;95005.69;;;21.85;100.00
20003;BME280;10162;41.600;23.806;2022-08-24T19:56:37;95034.94;;;21.91;100.00
20003;BME280;10162;41.600;23.806;2022-08-24T19:59:17;95039.22;;;21.92;97.19
20003;BME280;10162;41.600;23.806;2022-08-24T20:01:43;95058.09;;;21.80;100.00
20003;BME280;10162;41.600;23.806;2022-08-24T20:04:08;95073.00;;;21.56;100.00
20003;BME280;10162;41.600;23.806;2022-08-24T20:06:36;95068.97;;;21.48;100.00
20003;BME280;10162;41.600;23.806;2022-08-24T20:09:03;95069.78;;;21.43;100.00
20003;BME280;10162;41.600;23.806;2022-08-24T20:11:37;95066.84;;;21.45;100.00
20003;BME280;10162;41.600;23.806;2022-08-24T20:14:04;95053.31;;;21.41;98.00
20003;BME280;10162;41.600;23.806;2022-08-24T20:16:37;95066.06;;;21.44;96.26
20003;BME280;10162;41.600;23.806;2022-08-24T20:19:04;95067.59;;;21.30;96.45
20003;BME280;10162;41.600;23.806;2022-08-24T20:21:58;95094.00;;;21.47;96.29
20003;BME280;10162;41.600;23.806;2022-08-24T20:24:23;95088.63;;;21.32;96.18
20003;BME280;10162;41.600;23.806;2022-08-24T20:26:50;95092.25;;;21.06;98.81
20003;BME280;10162;41.600;23.806;2022-08-24T20:33:17;95128.00;;;21.30;97.90
20003;BME280;10162;41.600;23.806;2022-08-24T20:35:45;95115.22;;;21.27;98.17
20003;BME280;10162;41.600;23.806;2022-08-24T20:38:17;95106.16;;;21.23;98.04
20003;BME280;10162;41.600;23.806;2022-08-24T20:44:31;95140.97;;;21.21;98.15
20003;BME280;10162;41.600;23.806;2022-08-24T20:46:56;95113.84;;;21.19;97.03
20003;BME280;10162;41.600;23.806;2022-08-24T20:53:10;95141.97;;;21.10;100.00
20003;BME280;10162;41.600;23.806;2022-08-24T20:55:40;95120.28;;;20.76;100.00
20003;BME280;10162;41.600;23.806;2022-08-24T20:58:06;95123.75;;;20.77;100.00
20003;BME280;10162;41.600;23.806;2022-08-24T21:00:33;95129.03;;;20.72;100.00
20003;BME280;10162;41.600;23.806;2022-08-24T21:02:59;95129.81;;;20.67;100.00
20003;BME280;10162;41.600;23.806;2022-08-24T21:05:25;95117.75;;;20.49;100.00
20003;BME280;10162;41.600;23.806;2022-08-24T21:07:51;95118.44;;;20.35;100.00
20003;BME280;10162;41.600;23.806;2022-08-24T21:14:03;95102.94;;;19.58;100.00
20003;BME280;10162;41.600;23.806;2022-08-24T21:16:34;95102.50;;;19.44;100.00
20003;BME280;10162;41.600;23.806;2022-08-24T21:19:00;95089.72;;;19.36;100.00
20003;BME280;10162;41.600;23.806;2022-08-24T21:25:13;95087.44;;;19.23;100.00
20003;BME280;10162;41.600;23.806;2022-08-24T21:27:40;95072.44;;;19.07;100.00
20003;BME280;10162;41.600;23.806;2022-08-24T21:34:07;95074.41;;;18.94;100.00
20003;BME280;10162;41.600;23.806;2022-08-24T21:36:52;95088.03;;;18.81;100.00
20003;BME280;10162;41.600;23.806;2022-08-24T21:43:04;95089.06;;;18.58;100.00